sensor_id;sensor_type;location;lat;lon;timestamp;temperature;humidity
6865;DHT22;3471;49.678;8.388;2023-05-07T00:00:36;18.10;99.90
6865;DHT22;3471;49.678;8.388;2023-05-07T00:03:02;18.10;99.90
6865;DHT22;3471;49.678;8.388;2023-05-07T00:05:28;18.10;99.90
6865;DHT22;3471;49.678;8.388;2023-05-07T00:07:53;18.10;99.90
6865;DHT22;3471;49.678;8.388;2023-05-07T00:10:19;18.00;99.90
6865;DHT22;3471;49.678;8.388;2023-05-07T00:12:45;18.00;99.90
6865;DHT22;3471;49.678;8.388;2023-05-07T00:15:10;18.00;99.90
6865;DHT22;3471;49.678;8.388;2023-05-07T00:17:36;18.00;99.90
6865;DHT22;3471;49.678;8.388;2023-05-07T00:20:03;18.00;99.90
6865;DHT22;3471;49.678;8.388;2023-05-07T00:22:30;17.90;99.90
6865;DHT22;3471;49.678;8.388;2023-05-07T00:24:56;17.90;99.90
6865;DHT22;3471;49.678;8.388;2023-05-07T00:27:22;17.90;99.90
6865;DHT22;3471;49.678;8.388;2023-05-07T00:29:48;17.90;99.90
6865;DHT22;3471;49.678;8.388;2023-05-07T00:32:14;17.80;99.90
6865;DHT22;3471;49.678;8.388;2023-05-07T00:34:40;17.80;99.90
6865;DHT22;3471;49.678;8.388;2023-05-07T00:37:06;17.70;99.90
6865;DHT22;3471;49.678;8.388;2023-05-07T00:39:33;17.70;99.90
6865;DHT22;3471;49.678;8.388;2023-05-07T00:41:59;17.70;99.90
6865;DHT22;3471;49.678;8.388;2023-05-07T00:44:26;17.60;99.90
6865;DHT22;3471;49.678;8.388;2023-05-07T00:46:52;17.60;99.90
6865;DHT22;3471;49.678;8.388;2023-05-07T00:49:18;17.60;99.90
6865;DHT22;3471;49.678;8.388;2023-05-07T00:51:45;17.50;99.90
6865;DHT22;3471;49.678;8.388;2023-05-07T00:54:10;17.50;99.90
6865;DHT22;3471;49.678;8.388;2023-05-07T00:56:36;17.50;99.90
6865;DHT22;3471;49.678;8.388;2023-05-07T00:59:03;17.50;99.90
6865;DHT22;3471;49.678;8.388;2023-05-07T01:01:28;17.40;99.90
6865;DHT22;3471;49.678;8.388;2023-05-07T01:03:54;17.40;99.90
6865;DHT22;3471;49.678;8.388;2023-05-07T01:06:21;17.40;99.90
6865;DHT22;3471;49.678;8.388;2023-05-07T01:08:48;17.40;99.90
6865;DHT22;3471;49.678;8.388;2023-05-07T01:11:16;17.30;99.90
6865;DHT22;3471;49.678;8.388;2023-05-07T01:13:42;17.30;99.90
6865;DHT22;3471;49.678;8.388;2023-05-07T01:16:09;17.30;99.90
6865;DHT22;3471;49.678;8.388;2023-05-07T01:18:35;17.20;99.90
6865;DHT22;3471;49.678;8.388;2023-05-07T01:21:02;17.20;99.90
6865;DHT22;3471;49.678;8.388;2023-05-07T01:23:29;17.20;99.90
6865;DHT22;3471;49.678;8.388;2023-05-07T01:25:55;17.20;99.90
6865;DHT22;3471;49.678;8.388;2023-05-07T01:28:21;17.20;99.90
6865;DHT22;3471;49.678;8.388;2023-05-07T01:30:53;17.20;99.90
6865;DHT22;3471;49.678;8.388;2023-05-07T01:33:21;17.20;99.90
6865;DHT22;3471;49.678;8.388;2023-05-07T01:35:49;17.10;99.90
6865;DHT22;3471;49.678;8.388;2023-05-07T01:38:16;17.10;99.90
6865;DHT22;3471;49.678;8.388;2023-05-07T01:40:43;17.10;99.90
6865;DHT22;3471;49.678;8.388;2023-05-07T01:43:09;17.10;99.90
6865;DHT22;3471;49.678;8.388;2023-05-07T01:45:35;17.10;99.90
6865;DHT22;3471;49.678;8.388;2023-05-07T01:48:02;17.00;99.90
6865;DHT22;3471;49.678;8.388;2023-05-07T01:50:28;17.00;99.90
6865;DHT22;3471;49.678;8.388;2023-05-07T01:52:55;17.00;99.90
6865;DHT22;3471;49.678;8.388;2023-05-07T01:55:21;16.90;99.90
6865;DHT22;3471;49.678;8.388;2023-05-07T01:57:47;16.80;99.90
6865;DHT22;3471;49.678;8.388;2023-05-07T02:00:13;16.80;99.90
6865;DHT22;3471;49.678;8.388;2023-05-07T02:02:38;16.80;99.90
6865;DHT22;3471;49.678;8.388;2023-05-07T02:05:04;16.80;99.90
6865;DHT22;3471;49.678;8.388;2023-05-07T02:07:30;16.80;99.90
6865;DHT22;3471;49.678;8.388;2023-05-07T02:09:56;16.80;99.90
6865;DHT22;3471;49.678;8.388;2023-05-07T02:12:22;16.80;99.90
6865;DHT22;3471;49.678;8.388;2023-05-07T02:14:48;16.80;99.90
6865;DHT22;3471;49.678;8.388;2023-05-07T02:17:13;16.80;99.90
6865;DHT22;3471;49.678;8.388;2023-05-07T02:19:39;16.80;99.90
6865;DHT22;3471;49.678;8.388;2023-05-07T02:22:04;16.80;99.90
6865;DHT22;3471;49.678;8.388;2023-05-07T02:24:30;16.80;99.90
6865;DHT22;3471;49.678;8.388;2023-05-07T02:26:56;16.80;99.90
6865;DHT22;3471;49.678;8.388;2023-05-07T02:29:21;16.80;99.90
6865;DHT22;3471;49.678;8.388;2023-05-07T02:31:47;16.70;99.90
6865;DHT22;3471;49.678;8.388;2023-05-07T02:34:16;16.70;99.90
6865;DHT22;3471;49.678;8.388;2023-05-07T02:36:42;16.60;99.90
6865;DHT22;3471;49.678;8.388;2023-05-07T02:39:08;16.60;99.90
6865;DHT22;3471;49.678;8.388;2023-05-07T02:41:33;16.50;99.90
6865;DHT22;3471;49.678;8.388;2023-05-07T02:43:59;16.50;99.90
6865;DHT22;3471;49.678;8.388;2023-05-07T02:46:24;16.50;99.90
6865;DHT22;3471;49.678;8.388;2023-05-07T02:48:50;16.40;99.90
6865;DHT22;3471;49.678;8.388;2023-05-07T02:51:19;16.40;99.90
6865;DHT22;3471;49.678;8.388;2023-05-07T02:53:45;16.30;99.90
6865;DHT22;3471;49.678;8.388;2023-05-07T02:56:11;16.30;99.90
6865;DHT22;3471;49.678;8.388;2023-05-07T02:58:37;16.20;99.90
6865;DHT22;3471;49.678;8.388;2023-05-07T03:01:05;16.20;99.90
6865;DHT22;3471;49.678;8.388;2023-05-07T03:03:30;16.10;99.90
6865;DHT22;3471;49.678;8.388;2023-05-07T03:05:56;16.10;99.90
6865;DHT22;3471;49.678;8.388;2023-05-07T03:08:21;16.10;99.90
6865;DHT22;3471;49.678;8.388;2023-05-07T03:10:47;16.00;99.90
6865;DHT22;3471;49.678;8.388;2023-05-07T03:13:13;16.00;99.90
6865;DHT22;3471;49.678;8.388;2023-05-07T03:15:38;15.90;99.90
6865;DHT22;3471;49.678;8.388;2023-05-07T03:18:04;15.90;99.90
6865;DHT22;3471;49.678;8.388;2023-05-07T03:20:29;15.90;99.90
6865;DHT22;3471;49.678;8.388;2023-05-07T03:22:55;15.90;99.90
6865;DHT22;3471;49.678;8.388;2023-05-07T03:25:21;15.80;99.90
6865;DHT22;3471;49.678;8.388;2023-05-07T03:27:46;15.80;99.90
6865;DHT22;3471;49.678;8.388;2023-05-07T03:30:12;15.80;99.90
6865;DHT22;3471;49.678;8.388;2023-05-07T03:32:38;15.80;99.90
6865;DHT22;3471;49.678;8.388;2023-05-07T03:35:04;15.80;99.90
6865;DHT22;3471;49.678;8.388;2023-05-07T03:37:29;15.80;99.90
6865;DHT22;3471;49.678;8.388;2023-05-07T03:39:55;15.80;99.90
6865;DHT22;3471;49.678;8.388;2023-05-07T03:42:21;15.80;99.90
6865;DHT22;3471;49.678;8.388;2023-05-07T03:44:46;15.80;99.90
6865;DHT22;3471;49.678;8.388;2023-05-07T03:47:12;15.90;99.90
6865;DHT22;3471;49.678;8.388;2023-05-07T03:49:39;15.90;99.90
6865;DHT22;3471;49.678;8.388;2023-05-07T03:52:05;15.90;99.90
6865;DHT22;3471;49.678;8.388;2023-05-07T03:54:31;15.90;99.90
6865;DHT22;3471;49.678;8.388;2023-05-07T03:56:56;15.90;99.90
6865;DHT22;3471;49.678;8.388;2023-05-07T03:59:22;16.00;99.90
6865;DHT22;3471;49.678;8.388;2023-05-07T04:01:48;16.00;99.90
6865;DHT22;3471;49.678;8.388;2023-05-07T04:04:14;16.00;99.90
6865;DHT22;3471;49.678;8.388;2023-05-07T04:06:40;16.00;99.90
6865;DHT22;3471;49.678;8.388;2023-05-07T04:09:06;16.00;99.90
6865;DHT22;3471;49.678;8.388;2023-05-07T04:11:32;16.00;99.90
6865;DHT22;3471;49.678;8.388;2023-05-07T04:13:57;16.00;99.90
6865;DHT22;3471;49.678;8.388;2023-05-07T04:16:23;16.00;99.90
6865;DHT22;3471;49.678;8.388;2023-05-07T04:18:48;16.00;99.90
6865;DHT22;3471;49.678;8.388;2023-05-07T04:21:19;16.00;99.90
6865;DHT22;3471;49.678;8.388;2023-05-07T04:23:46;16.00;99.90
6865;DHT22;3471;49.678;8.388;2023-05-07T04:26:11;16.10;99.90
6865;DHT22;3471;49.678;8.388;2023-05-07T04:28:38;16.10;99.90
6865;DHT22;3471;49.678;8.388;2023-05-07T04:31:04;16.10;99.90
6865;DHT22;3471;49.678;8.388;2023-05-07T04:33:31;16.10;99.90
6865;DHT22;3471;49.678;8.388;2023-05-07T04:35:56;16.00;99.90
6865;DHT22;3471;49.678;8.388;2023-05-07T04:38:22;16.00;99.90
6865;DHT22;3471;49.678;8.388;2023-05-07T04:40:49;16.10;99.90
6865;DHT22;3471;49.678;8.388;2023-05-07T04:43:14;16.10;99.90
6865;DHT22;3471;49.678;8.388;2023-05-07T04:45:41;16.10;99.90
6865;DHT22;3471;49.678;8.388;2023-05-07T04:48:08;16.10;99.90
6865;DHT22;3471;49.678;8.388;2023-05-07T04:50:34;16.10;99.90
6865;DHT22;3471;49.678;8.388;2023-05-07T04:52:59;16.10;99.90
6865;DHT22;3471;49.678;8.388;2023-05-07T04:55:25;16.20;99.90
6865;DHT22;3471;49.678;8.388;2023-05-07T04:57:51;16.30;99.90
6865;DHT22;3471;49.678;8.388;2023-05-07T05:00:17;16.30;99.90
6865;DHT22;3471;49.678;8.388;2023-05-07T05:02:45;16.30;99.90
6865;DHT22;3471;49.678;8.388;2023-05-07T05:05:10;16.40;99.90
6865;DHT22;3471;49.678;8.388;2023-05-07T05:07:36;16.50;99.90
6865;DHT22;3471;49.678;8.388;2023-05-07T05:10:02;16.50;99.90
6865;DHT22;3471;49.678;8.388;2023-05-07T05:12:29;16.60;99.90
6865;DHT22;3471;49.678;8.388;2023-05-07T05:14:55;16.70;99.90
6865;DHT22;3471;49.678;8.388;2023-05-07T05:17:21;16.70;99.90
6865;DHT22;3471;49.678;8.388;2023-05-07T05:19:46;16.80;99.90
6865;DHT22;3471;49.678;8.388;2023-05-07T05:22:12;16.90;99.90
6865;DHT22;3471;49.678;8.388;2023-05-07T05:24:38;17.00;99.90
6865;DHT22;3471;49.678;8.388;2023-05-07T05:27:03;17.10;99.90
6865;DHT22;3471;49.678;8.388;2023-05-07T05:29:29;17.10;99.90
6865;DHT22;3471;49.678;8.388;2023-05-07T05:31:56;17.20;99.90
6865;DHT22;3471;49.678;8.388;2023-05-07T05:34:22;17.20;99.90
6865;DHT22;3471;49.678;8.388;2023-05-07T05:36:47;17.30;99.90
6865;DHT22;3471;49.678;8.388;2023-05-07T05:39:13;17.30;99.90
6865;DHT22;3471;49.678;8.388;2023-05-07T05:41:39;17.30;99.90
6865;DHT22;3471;49.678;8.388;2023-05-07T05:44:05;17.40;99.90
6865;DHT22;3471;49.678;8.388;2023-05-07T05:46:30;17.40;99.90
6865;DHT22;3471;49.678;8.388;2023-05-07T05:48:56;17.50;99.90
6865;DHT22;3471;49.678;8.388;2023-05-07T05:51:22;17.50;99.90
6865;DHT22;3471;49.678;8.388;2023-05-07T05:53:48;17.60;99.90
6865;DHT22;3471;49.678;8.388;2023-05-07T05:56:14;17.60;99.90
6865;DHT22;3471;49.678;8.388;2023-05-07T05:58:40;17.60;99.90
6865;DHT22;3471;49.678;8.388;2023-05-07T06:01:06;17.60;99.90
6865;DHT22;3471;49.678;8.388;2023-05-07T06:03:32;17.60;99.90
6865;DHT22;3471;49.678;8.388;2023-05-07T06:05:58;17.60;99.90
6865;DHT22;3471;49.678;8.388;2023-05-07T06:08:23;17.60;99.90
6865;DHT22;3471;49.678;8.388;2023-05-07T06:10:49;17.60;99.90
6865;DHT22;3471;49.678;8.388;2023-05-07T06:13:15;17.60;99.90
6865;DHT22;3471;49.678;8.388;2023-05-07T06:15:40;17.60;99.90
6865;DHT22;3471;49.678;8.388;2023-05-07T06:18:06;17.60;99.90
6865;DHT22;3471;49.678;8.388;2023-05-07T06:20:31;17.60;99.90
6865;DHT22;3471;49.678;8.388;2023-05-07T06:22:57;17.70;99.90
6865;DHT22;3471;49.678;8.388;2023-05-07T06:25:22;17.70;99.90
6865;DHT22;3471;49.678;8.388;2023-05-07T06:27:48;17.80;99.90
6865;DHT22;3471;49.678;8.388;2023-05-07T06:30:13;17.80;99.90
6865;DHT22;3471;49.678;8.388;2023-05-07T06:32:40;17.80;99.90
6865;DHT22;3471;49.678;8.388;2023-05-07T06:35:06;17.90;99.90
6865;DHT22;3471;49.678;8.388;2023-05-07T06:37:32;18.00;99.90
6865;DHT22;3471;49.678;8.388;2023-05-07T06:39:57;18.10;99.90
6865;DHT22;3471;49.678;8.388;2023-05-07T06:42:23;18.20;99.90
6865;DHT22;3471;49.678;8.388;2023-05-07T06:44:48;18.20;99.90
6865;DHT22;3471;49.678;8.388;2023-05-07T06:47:14;18.30;99.90
6865;DHT22;3471;49.678;8.388;2023-05-07T06:49:40;18.40;99.90
6865;DHT22;3471;49.678;8.388;2023-05-07T06:52:06;18.40;99.90
6865;DHT22;3471;49.678;8.388;2023-05-07T06:54:31;18.50;99.90
6865;DHT22;3471;49.678;8.388;2023-05-07T06:56:57;18.60;99.90
6865;DHT22;3471;49.678;8.388;2023-05-07T06:59:23;18.70;99.90
6865;DHT22;3471;49.678;8.388;2023-05-07T07:01:49;18.70;99.90
6865;DHT22;3471;49.678;8.388;2023-05-07T07:04:14;18.80;99.90
6865;DHT22;3471;49.678;8.388;2023-05-07T07:06:40;18.80;99.90
6865;DHT22;3471;49.678;8.388;2023-05-07T07:09:05;18.90;99.90
6865;DHT22;3471;49.678;8.388;2023-05-07T07:11:31;19.00;99.90
6865;DHT22;3471;49.678;8.388;2023-05-07T07:13:57;19.10;99.90
6865;DHT22;3471;49.678;8.388;2023-05-07T07:16:22;19.20;99.90
6865;DHT22;3471;49.678;8.388;2023-05-07T07:18:48;19.30;99.90
6865;DHT22;3471;49.678;8.388;2023-05-07T07:21:13;19.40;99.90
6865;DHT22;3471;49.678;8.388;2023-05-07T07:23:39;19.40;99.90
6865;DHT22;3471;49.678;8.388;2023-05-07T07:26:05;19.50;99.90
6865;DHT22;3471;49.678;8.388;2023-05-07T07:28:32;19.50;99.90
6865;DHT22;3471;49.678;8.388;2023-05-07T07:30:57;19.60;99.90
6865;DHT22;3471;49.678;8.388;2023-05-07T07:33:23;19.60;99.90
6865;DHT22;3471;49.678;8.388;2023-05-07T07:35:48;19.70;99.90
6865;DHT22;3471;49.678;8.388;2023-05-07T07:38:14;19.70;99.90
6865;DHT22;3471;49.678;8.388;2023-05-07T07:40:39;19.70;99.90
6865;DHT22;3471;49.678;8.388;2023-05-07T07:43:05;19.70;99.90
6865;DHT22;3471;49.678;8.388;2023-05-07T07:45:31;19.70;99.90
6865;DHT22;3471;49.678;8.388;2023-05-07T07:47:56;19.70;99.90
6865;DHT22;3471;49.678;8.388;2023-05-07T07:50:22;19.70;99.90
6865;DHT22;3471;49.678;8.388;2023-05-07T07:52:48;19.60;99.90
6865;DHT22;3471;49.678;8.388;2023-05-07T07:55:14;19.60;99.90
6865;DHT22;3471;49.678;8.388;2023-05-07T07:57:43;19.70;99.90
6865;DHT22;3471;49.678;8.388;2023-05-07T08:00:09;19.70;99.90
6865;DHT22;3471;49.678;8.388;2023-05-07T08:02:34;19.70;99.90
6865;DHT22;3471;49.678;8.388;2023-05-07T08:05:00;19.70;99.90
6865;DHT22;3471;49.678;8.388;2023-05-07T08:07:25;19.70;99.90
6865;DHT22;3471;49.678;8.388;2023-05-07T08:09:51;19.70;99.90
6865;DHT22;3471;49.678;8.388;2023-05-07T08:12:17;19.80;99.90
6865;DHT22;3471;49.678;8.388;2023-05-07T08:14:42;19.80;99.90
6865;DHT22;3471;49.678;8.388;2023-05-07T08:17:08;19.90;99.90
6865;DHT22;3471;49.678;8.388;2023-05-07T08:19:35;20.00;99.90
6865;DHT22;3471;49.678;8.388;2023-05-07T08:22:02;20.10;99.90
6865;DHT22;3471;49.678;8.388;2023-05-07T08:24:28;20.10;99.90
6865;DHT22;3471;49.678;8.388;2023-05-07T08:26:53;20.20;99.90
6865;DHT22;3471;49.678;8.388;2023-05-07T08:29:19;20.40;99.90
6865;DHT22;3471;49.678;8.388;2023-05-07T08:31:45;20.50;99.90
6865;DHT22;3471;49.678;8.388;2023-05-07T08:34:10;20.70;99.90
6865;DHT22;3471;49.678;8.388;2023-05-07T08:36:36;20.70;99.90
6865;DHT22;3471;49.678;8.388;2023-05-07T08:39:01;20.90;99.90
6865;DHT22;3471;49.678;8.388;2023-05-07T08:41:27;20.90;99.90
6865;DHT22;3471;49.678;8.388;2023-05-07T08:43:56;21.00;99.90
6865;DHT22;3471;49.678;8.388;2023-05-07T08:46:23;21.10;99.90
6865;DHT22;3471;49.678;8.388;2023-05-07T08:48:50;21.20;99.90
6865;DHT22;3471;49.678;8.388;2023-05-07T08:51:19;21.30;99.90
6865;DHT22;3471;49.678;8.388;2023-05-07T08:53:46;21.40;99.90
6865;DHT22;3471;49.678;8.388;2023-05-07T08:56:13;21.50;99.90
6865;DHT22;3471;49.678;8.388;2023-05-07T08:58:40;21.60;99.90
6865;DHT22;3471;49.678;8.388;2023-05-07T09:01:08;21.60;99.90
6865;DHT22;3471;49.678;8.388;2023-05-07T09:03:36;21.70;99.90
6865;DHT22;3471;49.678;8.388;2023-05-07T09:06:01;21.80;99.90
6865;DHT22;3471;49.678;8.388;2023-05-07T09:08:27;21.90;99.90
6865;DHT22;3471;49.678;8.388;2023-05-07T09:10:53;22.00;99.90
6865;DHT22;3471;49.678;8.388;2023-05-07T09:13:19;22.10;99.90
6865;DHT22;3471;49.678;8.388;2023-05-07T09:15:45;22.20;99.90
6865;DHT22;3471;49.678;8.388;2023-05-07T09:18:11;22.40;99.90
6865;DHT22;3471;49.678;8.388;2023-05-07T09:20:38;22.50;99.90
6865;DHT22;3471;49.678;8.388;2023-05-07T09:23:03;22.60;99.90
6865;DHT22;3471;49.678;8.388;2023-05-07T09:25:31;22.70;99.90
6865;DHT22;3471;49.678;8.388;2023-05-07T09:27:57;22.80;99.90
6865;DHT22;3471;49.678;8.388;2023-05-07T09:30:23;22.90;99.90
6865;DHT22;3471;49.678;8.388;2023-05-07T09:32:52;23.10;99.90
6865;DHT22;3471;49.678;8.388;2023-05-07T09:35:18;23.20;99.90
6865;DHT22;3471;49.678;8.388;2023-05-07T09:37:46;23.20;99.90
6865;DHT22;3471;49.678;8.388;2023-05-07T09:40:41;23.30;99.90
6865;DHT22;3471;49.678;8.388;2023-05-07T09:43:11;23.30;99.90
6865;DHT22;3471;49.678;8.388;2023-05-07T09:45:37;23.40;99.90
6865;DHT22;3471;49.678;8.388;2023-05-07T09:48:05;23.50;99.90
6865;DHT22;3471;49.678;8.388;2023-05-07T09:50:49;23.70;99.90
6865;DHT22;3471;49.678;8.388;2023-05-07T09:53:17;24.00;99.90
6865;DHT22;3471;49.678;8.388;2023-05-07T09:55:43;24.30;99.90
6865;DHT22;3471;49.678;8.388;2023-05-07T09:58:12;24.60;99.90
6865;DHT22;3471;49.678;8.388;2023-05-07T10:00:39;24.90;99.90
6865;DHT22;3471;49.678;8.388;2023-05-07T10:03:06;25.20;99.90
6865;DHT22;3471;49.678;8.388;2023-05-07T10:05:33;25.30;99.90
6865;DHT22;3471;49.678;8.388;2023-05-07T10:07:59;25.50;99.90
6865;DHT22;3471;49.678;8.388;2023-05-07T10:10:27;25.50;99.90
6865;DHT22;3471;49.678;8.388;2023-05-07T10:12:53;25.70;99.90
6865;DHT22;3471;49.678;8.388;2023-05-07T10:15:19;25.90;99.90
6865;DHT22;3471;49.678;8.388;2023-05-07T10:17:46;26.00;99.90
6865;DHT22;3471;49.678;8.388;2023-05-07T10:20:13;25.90;99.90
6865;DHT22;3471;49.678;8.388;2023-05-07T10:22:43;25.80;99.90
6865;DHT22;3471;49.678;8.388;2023-05-07T10:25:16;25.70;99.90
6865;DHT22;3471;49.678;8.388;2023-05-07T10:27:43;25.60;99.90
6865;DHT22;3471;49.678;8.388;2023-05-07T10:30:55;25.50;99.90
6865;DHT22;3471;49.678;8.388;2023-05-07T10:33:28;25.40;99.90
6865;DHT22;3471;49.678;8.388;2023-05-07T10:35:58;25.40;99.90
6865;DHT22;3471;49.678;8.388;2023-05-07T10:38:26;25.40;99.90
6865;DHT22;3471;49.678;8.388;2023-05-07T10:40:52;25.30;99.90
6865;DHT22;3471;49.678;8.388;2023-05-07T10:43:17;25.30;99.90
6865;DHT22;3471;49.678;8.388;2023-05-07T10:45:43;25.20;99.90
6865;DHT22;3471;49.678;8.388;2023-05-07T10:48:16;25.30;99.90
6865;DHT22;3471;49.678;8.388;2023-05-07T10:50:43;25.30;99.90
6865;DHT22;3471;49.678;8.388;2023-05-07T10:55:45;25.40;99.90
6865;DHT22;3471;49.678;8.388;2023-05-07T10:58:29;25.50;99.90
6865;DHT22;3471;49.678;8.388;2023-05-07T11:01:00;25.60;99.90
6865;DHT22;3471;49.678;8.388;2023-05-07T11:03:27;25.70;99.90
6865;DHT22;3471;49.678;8.388;2023-05-07T11:06:12;25.80;99.90
6865;DHT22;3471;49.678;8.388;2023-05-07T11:08:57;25.90;99.90
6865;DHT22;3471;49.678;8.388;2023-05-07T11:11:46;26.00;99.90
6865;DHT22;3471;49.678;8.388;2023-05-07T11:14:14;26.10;99.90
6865;DHT22;3471;49.678;8.388;2023-05-07T11:16:41;26.20;99.90
6865;DHT22;3471;49.678;8.388;2023-05-07T11:19:08;26.30;99.90
6865;DHT22;3471;49.678;8.388;2023-05-07T11:21:37;26.40;99.90
6865;DHT22;3471;49.678;8.388;2023-05-07T11:24:04;26.60;99.90
6865;DHT22;3471;49.678;8.388;2023-05-07T11:26:44;26.90;99.90
6865;DHT22;3471;49.678;8.388;2023-05-07T11:29:11;27.10;99.90
6865;DHT22;3471;49.678;8.388;2023-05-07T11:31:37;27.40;99.90
6865;DHT22;3471;49.678;8.388;2023-05-07T11:34:03;27.70;99.90
6865;DHT22;3471;49.678;8.388;2023-05-07T11:36:32;28.00;99.90
6865;DHT22;3471;49.678;8.388;2023-05-07T11:38:58;28.30;99.90
6865;DHT22;3471;49.678;8.388;2023-05-07T11:41:33;28.60;99.90
6865;DHT22;3471;49.678;8.388;2023-05-07T11:44:00;28.90;99.90
6865;DHT22;3471;49.678;8.388;2023-05-07T11:46:27;29.10;99.90
6865;DHT22;3471;49.678;8.388;2023-05-07T11:48:53;29.20;99.90
6865;DHT22;3471;49.678;8.388;2023-05-07T11:51:20;29.20;99.90
6865;DHT22;3471;49.678;8.388;2023-05-07T11:53:46;29.10;99.90
6865;DHT22;3471;49.678;8.388;2023-05-07T11:56:15;28.90;99.90
6865;DHT22;3471;49.678;8.388;2023-05-07T11:58:42;28.80;99.90
6865;DHT22;3471;49.678;8.388;2023-05-07T12:01:09;28.70;99.90
6865;DHT22;3471;49.678;8.388;2023-05-07T12:03:36;28.70;99.90
6865;DHT22;3471;49.678;8.388;2023-05-07T12:06:08;28.70;99.90
6865;DHT22;3471;49.678;8.388;2023-05-07T12:08:36;28.80;99.90
6865;DHT22;3471;49.678;8.388;2023-05-07T12:11:03;28.80;99.90
6865;DHT22;3471;49.678;8.388;2023-05-07T12:13:28;29.10;99.90
6865;DHT22;3471;49.678;8.388;2023-05-07T12:15:55;29.20;99.90
6865;DHT22;3471;49.678;8.388;2023-05-07T12:18:22;29.30;99.90
6865;DHT22;3471;49.678;8.388;2023-05-07T12:20:48;29.40;99.90
6865;DHT22;3471;49.678;8.388;2023-05-07T12:23:15;29.50;99.90
6865;DHT22;3471;49.678;8.388;2023-05-07T12:25:42;29.70;99.90
6865;DHT22;3471;49.678;8.388;2023-05-07T12:28:16;29.90;99.90
6865;DHT22;3471;49.678;8.388;2023-05-07T12:30:44;30.30;99.90
6865;DHT22;3471;49.678;8.388;2023-05-07T12:33:10;30.60;99.90
6865;DHT22;3471;49.678;8.388;2023-05-07T12:35:40;30.80;99.90
6865;DHT22;3471;49.678;8.388;2023-05-07T12:38:14;30.80;98.70
6865;DHT22;3471;49.678;8.388;2023-05-07T12:40:49;30.70;99.50
6865;DHT22;3471;49.678;8.388;2023-05-07T12:43:20;30.50;98.10
6865;DHT22;3471;49.678;8.388;2023-05-07T12:45:50;30.20;99.80
6865;DHT22;3471;49.678;8.388;2023-05-07T12:48:16;30.00;99.90
6865;DHT22;3471;49.678;8.388;2023-05-07T12:50:42;29.80;99.60
6865;DHT22;3471;49.678;8.388;2023-05-07T12:53:10;29.60;99.90
6865;DHT22;3471;49.678;8.388;2023-05-07T12:55:56;29.40;99.90
6865;DHT22;3471;49.678;8.388;2023-05-07T12:58:30;29.20;99.90
6865;DHT22;3471;49.678;8.388;2023-05-07T13:00:57;28.90;99.60
6865;DHT22;3471;49.678;8.388;2023-05-07T13:03:30;28.60;99.90
6865;DHT22;3471;49.678;8.388;2023-05-07T13:05:58;28.30;99.90
6865;DHT22;3471;49.678;8.388;2023-05-07T13:08:29;28.00;99.90
6865;DHT22;3471;49.678;8.388;2023-05-07T13:10:55;27.70;99.90
6865;DHT22;3471;49.678;8.388;2023-05-07T13:13:21;27.50;99.90
6865;DHT22;3471;49.678;8.388;2023-05-07T13:15:47;27.30;99.90
6865;DHT22;3471;49.678;8.388;2023-05-07T13:18:13;27.20;99.90
6865;DHT22;3471;49.678;8.388;2023-05-07T13:20:39;27.00;99.90
6865;DHT22;3471;49.678;8.388;2023-05-07T13:23:04;26.90;99.90
6865;DHT22;3471;49.678;8.388;2023-05-07T13:25:30;26.80;99.90
6865;DHT22;3471;49.678;8.388;2023-05-07T13:27:59;26.70;99.90
6865;DHT22;3471;49.678;8.388;2023-05-07T13:30:25;26.60;99.90
6865;DHT22;3471;49.678;8.388;2023-05-07T13:32:52;26.60;99.90
6865;DHT22;3471;49.678;8.388;2023-05-07T13:35:17;26.50;99.90
6865;DHT22;3471;49.678;8.388;2023-05-07T13:37:43;26.50;99.90
6865;DHT22;3471;49.678;8.388;2023-05-07T13:40:09;26.40;99.90
6865;DHT22;3471;49.678;8.388;2023-05-07T13:42:34;26.30;99.90
6865;DHT22;3471;49.678;8.388;2023-05-07T13:45:00;26.30;99.90
6865;DHT22;3471;49.678;8.388;2023-05-07T13:47:28;26.20;99.90
6865;DHT22;3471;49.678;8.388;2023-05-07T13:49:53;26.10;99.90
6865;DHT22;3471;49.678;8.388;2023-05-07T13:52:19;26.00;99.90
6865;DHT22;3471;49.678;8.388;2023-05-07T13:54:45;26.00;99.90
6865;DHT22;3471;49.678;8.388;2023-05-07T13:57:11;25.80;99.90
6865;DHT22;3471;49.678;8.388;2023-05-07T13:59:36;25.80;99.90
6865;DHT22;3471;49.678;8.388;2023-05-07T14:02:02;25.70;99.90
6865;DHT22;3471;49.678;8.388;2023-05-07T14:04:27;25.60;99.90
6865;DHT22;3471;49.678;8.388;2023-05-07T14:06:53;25.50;99.90
6865;DHT22;3471;49.678;8.388;2023-05-07T14:09:18;25.50;99.90
6865;DHT22;3471;49.678;8.388;2023-05-07T14:11:44;25.40;99.90
6865;DHT22;3471;49.678;8.388;2023-05-07T14:14:11;25.40;99.90
6865;DHT22;3471;49.678;8.388;2023-05-07T14:16:37;25.30;99.90
6865;DHT22;3471;49.678;8.388;2023-05-07T14:19:03;25.20;99.90
6865;DHT22;3471;49.678;8.388;2023-05-07T14:21:28;25.20;99.90
6865;DHT22;3471;49.678;8.388;2023-05-07T14:23:54;25.10;99.90
6865;DHT22;3471;49.678;8.388;2023-05-07T14:26:21;25.00;99.90
6865;DHT22;3471;49.678;8.388;2023-05-07T14:28:48;24.90;99.90
6865;DHT22;3471;49.678;8.388;2023-05-07T14:31:14;24.90;99.90
6865;DHT22;3471;49.678;8.388;2023-05-07T14:33:40;24.90;99.90
6865;DHT22;3471;49.678;8.388;2023-05-07T14:36:05;24.80;99.90
6865;DHT22;3471;49.678;8.388;2023-05-07T14:38:31;24.70;99.90
6865;DHT22;3471;49.678;8.388;2023-05-07T14:40:58;24.70;99.90
6865;DHT22;3471;49.678;8.388;2023-05-07T14:43:23;24.60;99.90
6865;DHT22;3471;49.678;8.388;2023-05-07T14:45:49;24.50;99.90
6865;DHT22;3471;49.678;8.388;2023-05-07T14:48:15;24.40;99.90
6865;DHT22;3471;49.678;8.388;2023-05-07T14:50:46;24.40;99.90
6865;DHT22;3471;49.678;8.388;2023-05-07T14:53:11;24.30;99.90
6865;DHT22;3471;49.678;8.388;2023-05-07T14:55:37;24.20;99.90
6865;DHT22;3471;49.678;8.388;2023-05-07T14:58:03;24.10;99.90
6865;DHT22;3471;49.678;8.388;2023-05-07T15:00:28;24.10;99.90
6865;DHT22;3471;49.678;8.388;2023-05-07T15:02:56;24.00;99.90
6865;DHT22;3471;49.678;8.388;2023-05-07T15:05:27;24.00;99.90
6865;DHT22;3471;49.678;8.388;2023-05-07T15:07:53;23.90;99.90
6865;DHT22;3471;49.678;8.388;2023-05-07T15:10:18;23.90;99.90
6865;DHT22;3471;49.678;8.388;2023-05-07T15:12:44;23.80;99.90
6865;DHT22;3471;49.678;8.388;2023-05-07T15:15:10;23.70;99.90
6865;DHT22;3471;49.678;8.388;2023-05-07T15:17:36;23.50;99.90
6865;DHT22;3471;49.678;8.388;2023-05-07T15:20:01;23.30;99.90
6865;DHT22;3471;49.678;8.388;2023-05-07T15:22:30;23.00;99.90
6865;DHT22;3471;49.678;8.388;2023-05-07T15:24:55;22.80;99.90
6865;DHT22;3471;49.678;8.388;2023-05-07T15:27:22;22.60;99.90
6865;DHT22;3471;49.678;8.388;2023-05-07T15:29:47;22.30;99.90
6865;DHT22;3471;49.678;8.388;2023-05-07T15:32:13;22.00;99.90
6865;DHT22;3471;49.678;8.388;2023-05-07T15:34:39;21.70;99.90
6865;DHT22;3471;49.678;8.388;2023-05-07T15:37:04;21.30;99.90
6865;DHT22;3471;49.678;8.388;2023-05-07T15:39:31;21.00;99.90
6865;DHT22;3471;49.678;8.388;2023-05-07T15:41:56;20.80;99.90
6865;DHT22;3471;49.678;8.388;2023-05-07T15:44:22;20.50;99.90
6865;DHT22;3471;49.678;8.388;2023-05-07T15:46:47;20.40;99.90
6865;DHT22;3471;49.678;8.388;2023-05-07T15:49:13;20.30;99.90
6865;DHT22;3471;49.678;8.388;2023-05-07T15:51:38;20.10;99.90
6865;DHT22;3471;49.678;8.388;2023-05-07T15:54:04;20.00;99.90
6865;DHT22;3471;49.678;8.388;2023-05-07T15:56:30;19.90;99.90
6865;DHT22;3471;49.678;8.388;2023-05-07T15:58:58;19.80;99.90
6865;DHT22;3471;49.678;8.388;2023-05-07T16:01:24;19.80;99.90